createdAt,value
2018-09-16T00:01:49.879Z,3.80
2018-09-16T00:04:18.234Z,4.07
2018-09-16T00:06:46.614Z,3.93
2018-09-16T00:09:14.994Z,3.90
2018-09-16T00:11:43.382Z,4.40
2018-09-16T00:14:11.945Z,4.23
2018-09-16T00:16:40.327Z,3.20
2018-09-16T00:19:08.691Z,3.97
2018-09-16T00:21:37.333Z,3.37
2018-09-16T00:24:05.714Z,3.33
2018-09-16T00:26:34.072Z,3.50
2018-09-16T00:29:02.462Z,3.97
2018-09-16T00:31:30.826Z,3.90
2018-09-16T00:33:59.202Z,3.50
2018-09-16T00:36:27.554Z,4.60
2018-09-16T00:38:55.949Z,4.80
2018-09-16T00:41:24.310Z,4.30
2018-09-16T00:43:52.716Z,4.67
2018-09-16T00:46:21.073Z,4.10
2018-09-16T00:48:49.470Z,4.57
2018-09-16T00:51:17.822Z,4.40
2018-09-16T00:53:46.202Z,3.73
2018-09-16T00:56:14.583Z,4.27
2018-09-16T00:58:42.962Z,4.20
2018-09-16T01:01:11.314Z,4.07
2018-09-16T01:03:39.694Z,4.17
2018-09-16T01:06:13.357Z,4.60
2018-09-16T01:08:41.747Z,4.70
2018-09-16T01:11:10.140Z,4.00
2018-09-16T01:13:38.531Z,4.10
2018-09-16T01:16:06.895Z,4.60
2018-09-16T01:18:35.270Z,4.13
2018-09-16T01:21:03.622Z,3.93
2018-09-16T01:23:32.045Z,4.20
2018-09-16T01:26:00.393Z,3.57
2018-09-16T01:28:28.786Z,3.97
2018-09-16T01:30:57.155Z,3.70
2018-09-16T01:33:25.586Z,4.23
2018-09-16T01:35:53.957Z,4.13
2018-09-16T01:38:22.515Z,4.07
2018-09-16T01:40:51.687Z,3.70
2018-09-16T01:43:20.394Z,3.80
2018-09-16T01:45:48.765Z,4.47
2018-09-16T01:48:17.158Z,2.90
2018-09-16T01:50:45.587Z,3.90
2018-09-16T01:53:13.979Z,4.00
2018-09-16T01:55:42.361Z,3.70
2018-09-16T01:58:10.741Z,3.77
2018-09-16T02:00:39.103Z,3.50
2018-09-16T02:03:07.507Z,2.50
2018-09-16T02:05:41.274Z,2.90
2018-09-16T02:08:09.675Z,3.90
2018-09-16T02:10:38.046Z,3.30
2018-09-16T02:13:06.658Z,3.70
2018-09-16T02:15:35.023Z,4.03
2018-09-16T02:18:03.410Z,3.80
2018-09-16T02:20:31.785Z,3.50
2018-09-16T02:23:00.202Z,3.60
2018-09-16T02:25:28.581Z,3.70
2018-09-16T02:27:57.053Z,3.70
2018-09-16T02:30:25.429Z,3.60
2018-09-16T02:32:53.815Z,4.00
2018-09-16T02:35:22.211Z,4.03
2018-09-16T02:37:50.580Z,3.90
2018-09-16T02:40:18.970Z,4.37
2018-09-16T02:42:47.343Z,4.77
2018-09-16T02:45:15.735Z,4.37
2018-09-16T02:47:44.101Z,4.57
2018-09-16T02:50:12.497Z,4.60
2018-09-16T02:52:40.867Z,4.03
2018-09-16T02:55:09.261Z,4.33
2018-09-16T02:57:37.803Z,5.20
2018-09-16T03:00:06.508Z,4.20
2018-09-16T03:02:34.973Z,5.60
2018-09-16T03:05:03.403Z,4.23
2018-09-16T03:07:32.029Z,4.07
2018-09-16T03:10:00.422Z,4.23
2018-09-16T03:12:28.898Z,4.70
2018-09-16T03:14:57.281Z,3.97
2018-09-16T03:17:25.655Z,4.83
2018-09-16T03:19:54.134Z,4.60
2018-09-16T03:22:22.507Z,4.73
2018-09-16T03:24:50.922Z,4.03
2018-09-16T03:27:19.291Z,4.80
2018-09-16T03:29:47.683Z,3.83
2018-09-16T03:32:16.049Z,4.10
2018-09-16T03:34:44.438Z,4.17
2018-09-16T03:37:12.811Z,4.40
2018-09-16T03:39:41.199Z,4.00
2018-09-16T03:42:09.576Z,4.53
2018-09-16T03:44:37.966Z,4.10
2018-09-16T03:47:06.338Z,4.23
2018-09-16T03:49:34.722Z,3.50
2018-09-16T03:52:03.091Z,4.47
2018-09-16T03:54:31.477Z,4.07
2018-09-16T03:56:59.847Z,4.40
2018-09-16T03:59:28.234Z,4.83
2018-09-16T04:01:56.676Z,4.20
2018-09-16T04:04:25.771Z,4.10
2018-09-16T04:06:54.131Z,4.47
2018-09-16T04:09:22.519Z,4.57
2018-09-16T04:11:50.905Z,4.33
2018-09-16T04:14:19.299Z,4.50
2018-09-16T04:16:47.669Z,4.67
2018-09-16T04:19:16.070Z,5.10
2018-09-16T04:21:44.445Z,4.90
2018-09-16T04:24:12.864Z,6.30
2018-09-16T04:26:41.237Z,4.60
2018-09-16T04:29:09.611Z,4.50
2018-09-16T04:31:38.092Z,5.17
2018-09-16T04:34:06.464Z,4.40
2018-09-16T04:36:34.858Z,6.83
2018-09-16T04:39:03.514Z,4.30
2018-09-16T04:41:31.906Z,4.63
2018-09-16T04:44:00.276Z,4.57
2018-09-16T04:46:28.838Z,5.23
2018-09-16T04:48:57.202Z,4.60
2018-09-16T04:51:25.597Z,4.70
2018-09-16T04:53:54.098Z,4.63
2018-09-16T04:56:22.494Z,4.23
2018-09-16T04:58:50.870Z,5.30
2018-09-16T05:01:19.258Z,4.37
2018-09-16T05:03:47.626Z,4.53
2018-09-16T05:06:16.018Z,5.30
2018-09-16T05:08:44.561Z,4.73
2018-09-16T05:11:13.237Z,4.30
2018-09-16T05:13:41.630Z,6.00
2018-09-16T05:16:10.018Z,5.10
2018-09-16T05:18:38.450Z,5.63
2018-09-16T05:21:06.856Z,4.87
2018-09-16T05:23:35.251Z,4.67
2018-09-16T05:26:03.783Z,5.03
2018-09-16T05:28:32.152Z,5.50
2018-09-16T05:31:00.546Z,5.17
2018-09-16T05:33:28.918Z,5.50
2018-09-16T05:35:57.309Z,6.40
2018-09-16T05:38:25.673Z,5.53
2018-09-16T05:40:54.067Z,6.00
2018-09-16T05:43:22.480Z,6.00
2018-09-16T05:45:50.854Z,5.77
2018-09-16T05:48:19.235Z,6.63
2018-09-16T05:50:47.630Z,6.37
2018-09-16T05:53:16.151Z,5.83
2018-09-16T05:55:44.422Z,5.20
2018-09-16T05:58:12.790Z,5.93
2018-09-16T06:00:41.187Z,5.53
2018-09-16T06:03:09.563Z,5.30
2018-09-16T06:05:37.954Z,6.00
2018-09-16T06:08:06.519Z,8.10
2018-09-16T06:10:34.912Z,5.47
2018-09-16T06:13:03.293Z,6.00
2018-09-16T06:15:31.685Z,5.30
2018-09-16T06:18:00.047Z,6.50
2018-09-16T06:20:28.442Z,5.90
2018-09-16T06:22:56.806Z,5.23
2018-09-16T06:25:25.232Z,5.60
2018-09-16T06:27:53.611Z,7.17
2018-09-16T06:30:22.018Z,6.43
2018-09-16T06:32:50.386Z,6.00
2018-09-16T06:35:18.759Z,6.83
2018-09-16T06:37:47.253Z,7.00
2018-09-16T06:40:15.830Z,6.80
2018-09-16T06:42:44.222Z,6.63
2018-09-16T06:45:12.589Z,6.70
2018-09-16T06:47:41.201Z,7.70
2018-09-16T06:50:09.587Z,7.10
2018-09-16T06:52:37.978Z,6.40
2018-09-16T06:55:06.890Z,7.90
2018-09-16T06:57:35.447Z,7.63
2018-09-16T07:00:04.253Z,7.70
2018-09-16T07:02:32.650Z,8.40
2018-09-16T07:05:02.298Z,6.93
2018-09-16T07:07:30.731Z,7.30
2018-09-16T07:09:59.099Z,7.10
2018-09-16T07:12:27.505Z,7.80
2018-09-16T07:14:55.988Z,7.00
2018-09-16T07:17:24.389Z,8.10
2018-09-16T07:19:52.755Z,6.90
2018-09-16T07:22:21.148Z,6.80
2018-09-16T07:24:49.539Z,5.07
2018-09-16T07:27:17.982Z,5.27
2018-09-16T07:29:46.375Z,3.80
2018-09-16T07:32:14.753Z,4.40
2018-09-16T07:34:43.139Z,5.80
2018-09-16T07:37:11.532Z,5.87
2018-09-16T07:39:39.903Z,5.70
2018-09-16T07:42:08.302Z,5.13
2018-09-16T07:44:36.681Z,4.60
2018-09-16T07:47:05.075Z,4.10
2018-09-16T07:49:33.463Z,4.33
2018-09-16T07:52:01.858Z,4.33
2018-09-16T07:54:30.230Z,4.03
2018-09-16T07:56:58.619Z,4.27
2018-09-16T07:59:26.992Z,3.90
2018-09-16T08:01:55.387Z,3.47
2018-09-16T08:04:23.810Z,3.97
2018-09-16T08:06:52.202Z,2.97
2018-09-16T08:09:20.575Z,3.23
2018-09-16T08:11:49.149Z,4.00
2018-09-16T08:14:17.514Z,3.43
2018-09-16T08:16:45.910Z,3.50
2018-09-16T08:19:14.285Z,2.17
2018-09-16T08:21:42.645Z,2.33
2018-09-16T08:24:11.067Z,2.30
2018-09-16T08:26:39.517Z,1.80
2018-09-16T08:29:07.943Z,2.60
2018-09-16T08:31:36.319Z,2.27
2018-09-16T08:34:04.829Z,2.80
2018-09-16T08:36:33.190Z,2.67
2018-09-16T08:39:01.578Z,2.10
2018-09-16T08:41:29.999Z,3.23
2018-09-16T08:43:58.388Z,2.73
2018-09-16T08:46:26.930Z,2.83
2018-09-16T08:48:55.327Z,3.50
2018-09-16T08:51:23.711Z,2.80
2018-09-16T08:53:52.302Z,2.83
2018-09-16T08:56:20.798Z,2.90
2018-09-16T08:58:49.194Z,2.00
2018-09-16T09:01:17.591Z,2.00
2018-09-16T09:03:46.014Z,2.13
2018-09-16T09:06:14.539Z,2.50
2018-09-16T09:08:42.925Z,2.30
2018-09-16T09:11:11.298Z,2.60
2018-09-16T09:13:39.701Z,2.17
2018-09-16T09:16:08.065Z,2.53
2018-09-16T09:18:36.472Z,2.70
2018-09-16T09:21:04.837Z,3.83
2018-09-16T09:23:33.246Z,2.87
2018-09-16T09:26:01.617Z,2.30
2018-09-16T09:28:30.002Z,1.77
2018-09-16T09:30:58.423Z,2.23
2018-09-16T09:33:26.806Z,2.60
2018-09-16T09:35:55.172Z,2.70
2018-09-16T09:38:23.558Z,1.60
2018-09-16T09:40:52.144Z,2.17
2018-09-16T09:43:20.537Z,2.73
2018-09-16T09:45:49.313Z,2.30
2018-09-16T09:48:17.689Z,2.27
2018-09-16T09:50:46.058Z,2.50
2018-09-16T09:53:14.451Z,2.50
2018-09-16T09:55:42.823Z,2.10
2018-09-16T09:58:11.212Z,2.40
2018-09-16T10:00:44.982Z,2.50
2018-09-16T10:03:13.454Z,2.10
2018-09-16T10:05:41.827Z,2.27
2018-09-16T10:08:10.238Z,2.23
2018-09-16T10:10:38.606Z,2.17
2018-09-16T10:13:07.323Z,2.90
2018-09-16T10:15:35.696Z,2.53
2018-09-16T10:18:04.102Z,2.07
2018-09-16T10:20:32.782Z,2.40
2018-09-16T10:23:01.510Z,2.00
2018-09-16T10:25:29.918Z,2.27
2018-09-16T10:27:58.464Z,1.80
2018-09-16T10:30:26.901Z,2.43
2018-09-16T10:32:55.485Z,2.37
2018-09-16T10:35:23.873Z,2.03
2018-09-16T10:37:52.233Z,2.10
2018-09-16T10:40:20.659Z,2.47
2018-09-16T10:42:49.022Z,2.70
2018-09-16T10:45:17.406Z,1.93
2018-09-16T10:47:45.835Z,2.43
2018-09-16T10:50:14.410Z,2.17
2018-09-16T10:52:42.865Z,2.93
2018-09-16T10:55:11.355Z,2.80
2018-09-16T10:57:39.815Z,2.63
2018-09-16T11:00:08.197Z,2.83
2018-09-16T11:02:37.074Z,2.13
2018-09-16T11:05:05.802Z,2.83
2018-09-16T11:07:34.178Z,3.47
2018-09-16T11:10:02.584Z,3.20
2018-09-16T11:12:31.010Z,3.63
2018-09-16T11:14:59.411Z,2.60
2018-09-16T11:17:27.775Z,3.10
2018-09-16T11:19:56.179Z,3.47
2018-09-16T11:22:24.737Z,2.60
2018-09-16T11:24:53.171Z,2.20
2018-09-16T11:27:21.537Z,2.27
2018-09-16T11:29:49.932Z,2.60
2018-09-16T11:32:18.311Z,2.70
2018-09-16T11:34:46.710Z,2.63
2018-09-16T11:37:15.080Z,2.50
2018-09-16T11:39:43.483Z,2.20
2018-09-16T11:42:11.852Z,2.67
2018-09-16T11:44:40.253Z,2.47
2018-09-16T11:47:08.711Z,2.03
2018-09-16T11:49:37.098Z,2.47
2018-09-16T11:52:05.494Z,2.47
2018-09-16T11:54:33.882Z,2.50
2018-09-16T11:57:02.250Z,2.10
2018-09-16T11:59:30.642Z,1.73
2018-09-16T12:01:59.055Z,1.90
2018-09-16T12:04:27.447Z,1.97
2018-09-16T12:06:55.826Z,1.97
2018-09-16T12:09:24.217Z,1.50
2018-09-16T12:11:52.607Z,1.87
2018-09-16T12:14:21.004Z,2.00
2018-09-16T12:16:49.373Z,2.27
2018-09-16T12:19:17.818Z,1.60
2018-09-16T12:21:46.187Z,2.03
2018-09-16T12:24:14.574Z,1.73
2018-09-16T12:26:42.975Z,2.00
2018-09-16T12:29:11.351Z,2.10
2018-09-16T12:31:39.766Z,2.40
2018-09-16T12:34:08.191Z,1.97
2018-09-16T12:36:36.775Z,1.87
2018-09-16T12:39:10.322Z,2.07
2018-09-16T12:41:38.701Z,1.90
2018-09-16T12:44:07.330Z,1.87
2018-09-16T12:46:35.752Z,1.90
2018-09-16T12:49:04.118Z,1.40
2018-09-16T12:51:32.554Z,1.97
2018-09-16T12:54:00.906Z,1.97
2018-09-16T12:56:29.624Z,1.70
2018-09-16T12:58:58.019Z,1.80
2018-09-16T13:01:26.403Z,2.03
2018-09-16T13:03:54.771Z,1.80
2018-09-16T13:06:23.346Z,1.63
2018-09-16T13:08:51.798Z,1.70
2018-09-16T13:11:20.190Z,1.87
2018-09-16T13:13:48.551Z,1.60
2018-09-16T13:16:16.943Z,1.47
2018-09-16T13:18:45.366Z,1.70
2018-09-16T13:21:13.770Z,1.37
2018-09-16T13:23:42.487Z,1.77
2018-09-16T13:26:10.866Z,1.70
2018-09-16T13:28:39.577Z,1.47
2018-09-16T13:31:07.967Z,2.23
2018-09-16T13:33:36.333Z,1.37
2018-09-16T13:36:04.731Z,1.77
2018-09-16T13:38:33.118Z,1.50
2018-09-16T13:41:01.507Z,1.87
2018-09-16T13:43:30.022Z,1.40
2018-09-16T13:45:58.706Z,1.70
2018-09-16T13:48:27.073Z,1.83
2018-09-16T13:50:55.460Z,1.90
2018-09-16T13:53:25.150Z,2.30
2018-09-16T13:55:53.611Z,2.00
2018-09-16T13:58:21.978Z,1.70
2018-09-16T14:03:12.005Z,1.30
2018-09-16T14:05:40.398Z,1.70
2018-09-16T14:08:08.796Z,1.70
2018-09-16T14:10:37.301Z,1.30
2018-09-16T14:13:05.728Z,1.57
2018-09-16T14:15:34.135Z,1.90
2018-09-16T14:18:02.501Z,1.80
2018-09-16T14:20:30.882Z,1.23
2018-09-16T14:22:59.245Z,1.40
2018-09-16T14:25:27.630Z,1.57
2018-09-16T14:27:56.027Z,1.50
2018-09-16T14:30:24.394Z,1.50
2018-09-16T14:32:52.786Z,1.23
2018-09-16T14:35:21.165Z,2.47
2018-09-16T14:37:49.625Z,1.50
2018-09-16T14:40:17.995Z,1.50
2018-09-16T14:42:46.394Z,1.57
2018-09-16T14:45:14.794Z,1.30
2018-09-16T14:47:44.002Z,1.67
2018-09-16T14:50:12.372Z,1.60
2018-09-16T14:52:40.966Z,1.30
2018-09-16T14:55:09.339Z,1.80
2018-09-16T14:57:37.726Z,1.23
2018-09-16T15:00:06.197Z,1.37
2018-09-16T15:02:34.587Z,1.50
2018-09-16T15:05:02.978Z,1.63
2018-09-16T15:07:31.397Z,1.87
2018-09-16T15:09:59.767Z,1.60
2018-09-16T15:12:28.177Z,1.33
2018-09-16T15:14:56.571Z,1.70
2018-09-16T15:17:25.101Z,1.37
2018-09-16T15:19:53.470Z,1.77
2018-09-16T15:22:21.857Z,1.63
2018-09-16T15:24:50.250Z,1.50
2018-09-16T15:27:18.638Z,1.37
2018-09-16T15:29:47.003Z,1.63
2018-09-16T15:32:15.394Z,1.27
2018-09-16T15:34:43.767Z,1.83
2018-09-16T15:37:12.167Z,1.50
2018-09-16T15:39:40.534Z,1.50
2018-09-16T15:42:08.953Z,1.80
2018-09-16T15:44:37.320Z,1.80
2018-09-16T15:47:05.723Z,2.03
2018-09-16T15:49:34.085Z,1.90
2018-09-16T15:52:02.479Z,2.10
2018-09-16T15:54:30.838Z,1.13
2018-09-16T15:56:59.230Z,2.10
2018-09-16T15:59:27.597Z,2.50
2018-09-16T16:01:56.128Z,1.90
2018-09-16T16:04:24.491Z,1.67
2018-09-16T16:06:52.873Z,1.40
2018-09-16T16:09:21.239Z,2.00
2018-09-16T16:11:50.144Z,1.80
2018-09-16T16:14:18.507Z,2.20
2018-09-16T16:16:46.945Z,1.60
2018-09-16T16:19:15.314Z,1.93
2018-09-16T16:21:43.726Z,2.23
2018-09-16T16:24:12.187Z,1.80
2018-09-16T16:26:40.558Z,1.80
2018-09-16T16:29:08.982Z,2.20
2018-09-16T16:31:37.362Z,2.20
2018-09-16T16:34:05.747Z,2.17
2018-09-16T16:36:34.109Z,2.30
2018-09-16T16:39:02.515Z,1.93
2018-09-16T16:41:30.875Z,1.90
2018-09-16T16:43:59.262Z,1.80
2018-09-16T16:46:27.626Z,1.97
2018-09-16T16:48:56.022Z,1.63
2018-09-16T16:51:24.396Z,2.23
2018-09-16T16:53:52.790Z,2.60
2018-09-16T16:56:21.154Z,3.13
2018-09-16T16:58:49.552Z,1.80
2018-09-16T17:01:18.014Z,2.10
2018-09-16T17:03:46.354Z,3.00
2018-09-16T17:06:14.736Z,2.63
2018-09-16T17:08:43.163Z,2.03
2018-09-16T17:11:11.538Z,2.13
2018-09-16T17:13:39.954Z,2.60
2018-09-16T17:16:08.410Z,2.70
2018-09-16T17:18:36.789Z,2.57
2018-09-16T17:21:05.154Z,2.10
2018-09-16T17:23:33.621Z,2.30
2018-09-16T17:26:01.963Z,2.23
2018-09-16T17:28:30.358Z,2.73
2018-09-16T17:30:58.735Z,4.60
2018-09-16T17:33:27.122Z,2.87
2018-09-16T17:35:55.495Z,2.33
2018-09-16T17:38:23.959Z,2.23
2018-09-16T17:40:52.318Z,2.83
2018-09-16T17:43:20.713Z,3.10
2018-09-16T17:45:49.078Z,2.73
2018-09-16T17:48:17.466Z,2.67
2018-09-16T17:50:45.866Z,2.83
2018-09-16T17:53:15.271Z,2.60
2018-09-16T17:55:43.639Z,2.30
2018-09-16T17:58:12.031Z,2.00
2018-09-16T18:00:40.398Z,2.60
2018-09-16T18:03:08.783Z,2.50
2018-09-16T18:05:37.155Z,2.47
2018-09-16T18:08:05.542Z,2.37
2018-09-16T18:10:34.007Z,2.23
2018-09-16T18:13:02.339Z,2.67
2018-09-16T18:15:30.702Z,2.43
2018-09-16T18:17:59.095Z,2.80
2018-09-16T18:20:27.459Z,3.27
2018-09-16T18:22:55.826Z,3.67
2018-09-16T18:25:24.233Z,2.97
2018-09-16T18:27:52.603Z,2.50
2018-09-16T18:30:20.997Z,2.30
2018-09-16T18:32:49.372Z,2.73
2018-09-16T18:35:17.792Z,2.60
2018-09-16T18:37:46.167Z,2.97
2018-09-16T18:40:14.595Z,2.50
2018-09-16T18:42:42.958Z,2.40
2018-09-16T18:45:11.361Z,3.37
2018-09-16T18:47:39.730Z,2.90
2018-09-16T18:50:08.130Z,2.93
2018-09-16T18:52:36.527Z,2.70
2018-09-16T18:55:05.087Z,3.30
2018-09-16T18:57:33.449Z,3.00
2018-09-16T19:00:01.837Z,3.23
2018-09-16T19:02:30.207Z,2.60
2018-09-16T19:04:58.594Z,4.60
2018-09-16T19:07:26.970Z,4.80
2018-09-16T19:09:55.357Z,4.77
2018-09-16T19:12:23.731Z,5.37
2018-09-16T19:14:52.130Z,4.93
2018-09-16T19:17:20.498Z,4.50
2018-09-16T19:19:48.943Z,5.60
2018-09-16T19:22:17.290Z,5.50
2018-09-16T19:24:45.711Z,5.00
2018-09-16T19:27:14.083Z,4.90
2018-09-16T19:29:42.470Z,3.90
2018-09-16T19:32:10.846Z,5.13
2018-09-16T19:34:39.243Z,4.73
2018-09-16T19:37:07.623Z,4.23
2018-09-16T19:39:36.010Z,5.13
2018-09-16T19:42:04.378Z,4.30
2018-09-16T19:44:33.390Z,4.23
2018-09-16T19:47:01.763Z,5.23
2018-09-16T19:49:30.157Z,7.30
2018-09-16T19:51:58.530Z,6.60
2018-09-16T19:54:26.939Z,5.13
2018-09-16T19:56:55.312Z,5.50
2018-09-16T19:59:23.707Z,4.80
2018-09-16T20:01:52.191Z,4.40
2018-09-16T20:04:20.586Z,3.60
2018-09-16T20:06:48.963Z,4.50
2018-09-16T20:09:17.358Z,4.20
2018-09-16T20:11:45.733Z,3.63
2018-09-16T20:14:14.134Z,3.57
2018-09-16T20:16:42.511Z,3.43
2018-09-16T20:19:10.893Z,4.20
2018-09-16T20:21:39.330Z,3.73
2018-09-16T20:24:07.701Z,4.23
2018-09-16T20:26:36.103Z,4.00
2018-09-16T20:29:04.469Z,4.10
2018-09-16T20:31:32.862Z,4.13
2018-09-16T20:34:01.239Z,5.23
2018-09-16T20:36:29.630Z,5.30
2018-09-16T20:38:57.995Z,4.40
2018-09-16T20:41:26.390Z,4.57
2018-09-16T20:43:54.778Z,4.50
2018-09-16T20:46:23.167Z,4.23
2018-09-16T20:48:51.535Z,3.70
2018-09-16T20:51:20.007Z,4.40
2018-09-16T20:53:48.431Z,4.23
2018-09-16T20:56:16.866Z,4.57
2018-09-16T20:58:45.234Z,4.83
2018-09-16T21:01:13.634Z,4.07
2018-09-16T21:03:42.037Z,4.17
2018-09-16T21:06:10.431Z,4.30
2018-09-16T21:08:38.794Z,4.57
2018-09-16T21:11:07.305Z,4.70
2018-09-16T21:13:35.711Z,4.17
2018-09-16T21:16:04.099Z,3.67
2018-09-16T21:18:32.470Z,4.27
2018-09-16T21:21:00.862Z,4.00
2018-09-16T21:23:29.248Z,2.50
2018-09-16T21:25:57.694Z,4.13
2018-09-16T21:28:26.034Z,3.93
2018-09-16T21:30:54.422Z,3.70
2018-09-16T21:33:22.790Z,3.80
2018-09-16T21:35:51.189Z,4.70
2018-09-16T21:38:19.550Z,3.10
2018-09-16T21:40:47.933Z,3.00
2018-09-16T21:43:17.299Z,3.43
2018-09-16T21:45:45.734Z,3.67
2018-09-16T21:48:14.104Z,3.40
2018-09-16T21:50:42.506Z,4.30
2018-09-16T21:53:10.872Z,4.63
2018-09-16T21:55:39.262Z,4.07
2018-09-16T21:58:07.627Z,3.70
2018-09-16T22:00:36.014Z,3.97
2018-09-16T22:03:04.381Z,2.80
2018-09-16T22:05:32.766Z,4.43
2018-09-16T22:08:01.143Z,3.80
2018-09-16T22:10:29.695Z,4.70
2018-09-16T22:12:58.071Z,3.87
2018-09-16T22:15:26.439Z,4.50
2018-09-16T22:17:54.826Z,4.20
2018-09-16T22:20:23.203Z,3.93
2018-09-16T22:22:51.591Z,4.50
2018-09-16T22:25:20.038Z,4.40
2018-09-16T22:27:48.427Z,5.00
2018-09-16T22:30:16.797Z,4.50
2018-09-16T22:32:45.199Z,4.50
2018-09-16T22:35:13.660Z,4.83
2018-09-16T22:37:42.005Z,4.40
2018-09-16T22:40:10.404Z,3.97
2018-09-16T22:42:38.807Z,3.83
2018-09-16T22:45:07.259Z,3.83
2018-09-16T22:47:35.642Z,4.27
2018-09-16T22:50:04.021Z,4.43
2018-09-16T22:52:32.443Z,4.97
2018-09-16T22:55:00.878Z,4.07
2018-09-16T22:57:29.278Z,4.00
2018-09-16T22:59:57.647Z,4.30
2018-09-16T23:02:26.037Z,4.40
2018-09-16T23:04:54.408Z,4.90
2018-09-16T23:07:22.794Z,3.80
2018-09-16T23:09:51.163Z,3.97
2018-09-16T23:12:19.571Z,4.33
2018-09-16T23:14:48.017Z,4.80
2018-09-16T23:17:16.405Z,4.10
2018-09-16T23:19:44.783Z,4.00
2018-09-16T23:22:13.166Z,5.10
2018-09-16T23:24:41.556Z,4.73
2018-09-16T23:27:09.947Z,4.90
2018-09-16T23:29:38.323Z,4.60
2018-09-16T23:32:06.709Z,4.30
2018-09-16T23:34:35.070Z,4.60
2018-09-16T23:37:03.458Z,5.53
2018-09-16T23:39:31.825Z,5.33
2018-09-16T23:42:00.211Z,5.20
2018-09-16T23:44:28.787Z,5.23
2018-09-16T23:46:57.305Z,5.60
2018-09-16T23:49:25.679Z,5.80
2018-09-16T23:51:54.081Z,5.87
2018-09-16T23:54:22.454Z,6.50
2018-09-16T23:56:50.854Z,5.30
2018-09-16T23:59:19.227Z,5.37
